sensor_id;sensor_type;location;lat;lon;timestamp;pressure;altitude;pressure_sealevel;temperature;humidity
65534;BME280;53640;55.838;37.184;2023-02-18T00:01:32;99164.25;;;-10.72;58.31
65534;BME280;53640;55.838;37.184;2023-02-18T00:03:59;99200.59;;;-10.51;58.51
65534;BME280;53640;55.838;37.184;2023-02-18T00:06:30;99197.22;;;-10.53;58.15
65534;BME280;53640;55.838;37.184;2023-02-18T00:08:57;99202.94;;;-10.47;57.98
65534;BME280;53640;55.838;37.184;2023-02-18T00:11:28;99205.94;;;-10.39;58.10
65534;BME280;53640;55.838;37.184;2023-02-18T00:13:58;99193.41;;;-10.48;57.98
65534;BME280;53640;55.838;37.184;2023-02-18T00:16:26;99206.56;;;-10.49;58.32
65534;BME280;53640;55.838;37.184;2023-02-18T00:18:57;99214.91;;;-10.43;58.09
65534;BME280;53640;55.838;37.184;2023-02-18T00:21:24;99169.47;;;-10.56;57.92
65534;BME280;53640;55.838;37.184;2023-02-18T00:23:52;99179.00;;;-10.55;58.03
65534;BME280;53640;55.838;37.184;2023-02-18T00:26:18;99185.41;;;-10.45;57.87
65534;BME280;53640;55.838;37.184;2023-02-18T00:28:46;99148.00;;;-10.77;57.97
65534;BME280;53640;55.838;37.184;2023-02-18T00:31:23;99171.72;;;-10.50;57.93
65534;BME280;53640;55.838;37.184;2023-02-18T00:33:50;99129.22;;;-10.83;58.09
65534;BME280;53640;55.838;37.184;2023-02-18T00:36:18;99174.50;;;-10.53;58.14
65534;BME280;53640;55.838;37.184;2023-02-18T00:38:46;99131.66;;;-10.80;58.15
65534;BME280;53640;55.838;37.184;2023-02-18T00:41:14;99143.00;;;-10.66;58.15
65534;BME280;53640;55.838;37.184;2023-02-18T00:43:40;99142.84;;;-10.63;58.07
65534;BME280;53640;55.838;37.184;2023-02-18T00:46:09;99065.84;;;-11.17;58.12
65534;BME280;53640;55.838;37.184;2023-02-18T00:48:36;99091.84;;;-11.00;58.21
65534;BME280;53640;55.838;37.184;2023-02-18T00:51:03;99145.34;;;-10.61;58.15
65534;BME280;53640;55.838;37.184;2023-02-18T00:53:30;99153.75;;;-10.70;58.32
65534;BME280;53640;55.838;37.184;2023-02-18T00:55:58;99133.81;;;-10.73;58.25
65534;BME280;53640;55.838;37.184;2023-02-18T00:58:25;99074.22;;;-10.96;58.36
65534;BME280;53640;55.838;37.184;2023-02-18T01:00:53;99130.78;;;-10.65;58.35
65534;BME280;53640;55.838;37.184;2023-02-18T01:03:20;99128.44;;;-10.70;58.12
65534;BME280;53640;55.838;37.184;2023-02-18T01:05:51;99063.78;;;-10.96;58.27
65534;BME280;53640;55.838;37.184;2023-02-18T01:08:19;99097.06;;;-10.70;58.01
65534;BME280;53640;55.838;37.184;2023-02-18T01:10:48;99057.88;;;-11.00;58.26
65534;BME280;53640;55.838;37.184;2023-02-18T01:13:15;99052.31;;;-10.94;58.37
65534;BME280;53640;55.838;37.184;2023-02-18T01:15:42;99053.78;;;-10.90;58.22
65534;BME280;53640;55.838;37.184;2023-02-18T01:18:09;99041.06;;;-11.10;58.30
65534;BME280;53640;55.838;37.184;2023-02-18T01:20:37;99052.31;;;-10.94;58.04
65534;BME280;53640;55.838;37.184;2023-02-18T01:23:07;99033.69;;;-11.03;58.30
65534;BME280;53640;55.838;37.184;2023-02-18T01:25:35;99077.97;;;-10.72;58.39
65534;BME280;53640;55.838;37.184;2023-02-18T01:28:02;99046.31;;;-10.96;58.15
65534;BME280;53640;55.838;37.184;2023-02-18T01:30:29;99068.19;;;-10.82;58.52
65534;BME280;53640;55.838;37.184;2023-02-18T01:32:56;99069.50;;;-10.75;58.38
65534;BME280;53640;55.838;37.184;2023-02-18T01:35:23;99016.19;;;-11.01;58.26
65534;BME280;53640;55.838;37.184;2023-02-18T01:37:50;99028.97;;;-10.97;58.23
65534;BME280;53640;55.838;37.184;2023-02-18T01:40:25;99047.94;;;-10.79;58.42
65534;BME280;53640;55.838;37.184;2023-02-18T01:42:52;98993.94;;;-11.08;58.50
65534;BME280;53640;55.838;37.184;2023-02-18T01:50:37;99011.97;;;-10.90;58.26
65534;BME280;53640;55.838;37.184;2023-02-18T01:53:06;99035.94;;;-10.83;58.56
65534;BME280;53640;55.838;37.184;2023-02-18T01:55:34;99027.84;;;-10.93;58.49
65534;BME280;53640;55.838;37.184;2023-02-18T01:58:02;98994.16;;;-10.97;58.60
65534;BME280;53640;55.838;37.184;2023-02-18T02:00:29;99017.25;;;-10.91;58.72
65534;BME280;53640;55.838;37.184;2023-02-18T02:02:57;99002.16;;;-11.00;58.46
65534;BME280;53640;55.838;37.184;2023-02-18T02:05:25;98961.16;;;-11.14;58.49
65534;BME280;53640;55.838;37.184;2023-02-18T02:07:56;99005.03;;;-10.91;58.42
65534;BME280;53640;55.838;37.184;2023-02-18T02:10:35;98994.88;;;-10.95;58.58
65534;BME280;53640;55.838;37.184;2023-02-18T02:22:38;98985.66;;;-10.87;59.47
65534;BME280;53640;55.838;37.184;2023-02-18T02:27:23;98989.34;;;-10.91;59.79
65534;BME280;53640;55.838;37.184;2023-02-18T02:38:03;98894.91;;;-11.13;59.42
65534;BME280;53640;55.838;37.184;2023-02-18T02:40:43;98981.91;;;-10.68;59.69
65534;BME280;53640;55.838;37.184;2023-02-18T02:46:06;98967.81;;;-10.66;59.62
65534;BME280;53640;55.838;37.184;2023-02-18T02:51:35;98946.06;;;-10.66;59.78
65534;BME280;53640;55.838;37.184;2023-02-18T02:54:16;98965.31;;;-10.67;59.87
65534;BME280;53640;55.838;37.184;2023-02-18T02:56:43;98951.75;;;-10.74;60.24
65534;BME280;53640;55.838;37.184;2023-02-18T02:59:15;98943.06;;;-10.74;60.32
65534;BME280;53640;55.838;37.184;2023-02-18T03:02:28;98956.03;;;-10.73;60.43
65534;BME280;53640;55.838;37.184;2023-02-18T03:17:25;98917.13;;;-10.63;59.92
65534;BME280;53640;55.838;37.184;2023-02-18T03:20:35;98905.72;;;-10.62;60.13
65534;BME280;53640;55.838;37.184;2023-02-18T03:23:17;98829.59;;;-11.13;59.97
65534;BME280;53640;55.838;37.184;2023-02-18T03:25:54;98887.78;;;-10.68;59.74
65534;BME280;53640;55.838;37.184;2023-02-18T03:28:30;98745.75;;;-11.51;59.73
65534;BME280;53640;55.838;37.184;2023-02-18T03:31:16;98737.84;;;-11.50;59.65
65534;BME280;53640;55.838;37.184;2023-02-18T03:34:24;98785.75;;;-11.22;59.85
65534;BME280;53640;55.838;37.184;2023-02-18T03:37:00;98812.81;;;-11.09;59.98
65534;BME280;53640;55.838;37.184;2023-02-18T03:39:45;98791.47;;;-11.16;59.67
65534;BME280;53640;55.838;37.184;2023-02-18T03:42:15;98731.97;;;-11.53;59.78
65534;BME280;53640;55.838;37.184;2023-02-18T03:45:14;98741.13;;;-11.46;59.92
65534;BME280;53640;55.838;37.184;2023-02-18T03:47:43;98782.78;;;-11.30;59.68
65534;BME280;53640;55.838;37.184;2023-02-18T03:50:16;98800.31;;;-11.18;59.78
65534;BME280;53640;55.838;37.184;2023-02-18T03:53:02;98815.41;;;-10.95;59.90
65534;BME280;53640;55.838;37.184;2023-02-18T03:55:46;98765.34;;;-11.30;59.92
65534;BME280;53640;55.838;37.184;2023-02-18T03:58:17;98734.41;;;-11.50;60.17
65534;BME280;53640;55.838;37.184;2023-02-18T04:00:51;98794.53;;;-11.09;60.10
65534;BME280;53640;55.838;37.184;2023-02-18T04:03:17;98829.38;;;-10.81;60.12
65534;BME280;53640;55.838;37.184;2023-02-18T04:05:45;98824.03;;;-10.80;60.14
65534;BME280;53640;55.838;37.184;2023-02-18T04:08:20;98811.63;;;-10.91;60.39
65534;BME280;53640;55.838;37.184;2023-02-18T04:10:49;98823.47;;;-10.85;60.59
65534;BME280;53640;55.838;37.184;2023-02-18T04:13:26;98823.75;;;-10.75;60.63
65534;BME280;53640;55.838;37.184;2023-02-18T04:15:53;98780.69;;;-10.97;60.56
65534;BME280;53640;55.838;37.184;2023-02-18T04:18:20;98828.28;;;-10.65;60.33
65534;BME280;53640;55.838;37.184;2023-02-18T04:20:47;98812.81;;;-10.68;60.48
65534;BME280;53640;55.838;37.184;2023-02-18T04:23:14;98818.41;;;-10.59;60.32
65534;BME280;53640;55.838;37.184;2023-02-18T04:25:40;98796.50;;;-10.71;60.07
65534;BME280;53640;55.838;37.184;2023-02-18T04:28:06;98808.59;;;-10.56;60.22
65534;BME280;53640;55.838;37.184;2023-02-18T04:30:36;98812.88;;;-10.55;60.43
65534;BME280;53640;55.838;37.184;2023-02-18T04:33:02;98791.84;;;-10.53;59.98
65534;BME280;53640;55.838;37.184;2023-02-18T04:35:28;98806.88;;;-10.57;60.34
65534;BME280;53640;55.838;37.184;2023-02-18T04:37:55;98773.22;;;-10.76;60.16
65534;BME280;53640;55.838;37.184;2023-02-18T04:40:21;98782.38;;;-10.69;60.10
65534;BME280;53640;55.838;37.184;2023-02-18T04:42:50;98764.97;;;-10.82;60.02
65534;BME280;53640;55.838;37.184;2023-02-18T04:45:16;98755.53;;;-10.85;59.90
65534;BME280;53640;55.838;37.184;2023-02-18T04:47:43;98780.69;;;-10.70;59.91
65534;BME280;53640;55.838;37.184;2023-02-18T04:50:09;98813.91;;;-10.57;59.71
65534;BME280;53640;55.838;37.184;2023-02-18T04:52:36;98750.06;;;-10.95;59.65
65534;BME280;53640;55.838;37.184;2023-02-18T04:55:03;98779.31;;;-10.75;59.58
65534;BME280;53640;55.838;37.184;2023-02-18T04:57:29;98779.06;;;-10.85;59.66
65534;BME280;53640;55.838;37.184;2023-02-18T04:59:56;98783.75;;;-10.90;59.82
65534;BME280;53640;55.838;37.184;2023-02-18T05:02:23;98760.09;;;-10.89;59.74
65534;BME280;53640;55.838;37.184;2023-02-18T05:04:50;98732.75;;;-11.10;59.53
65534;BME280;53640;55.838;37.184;2023-02-18T05:07:17;98735.44;;;-10.97;59.59
65534;BME280;53640;55.838;37.184;2023-02-18T05:09:44;98776.41;;;-10.98;60.26
65534;BME280;53640;55.838;37.184;2023-02-18T05:12:10;98709.22;;;-11.10;59.10
65534;BME280;53640;55.838;37.184;2023-02-18T05:14:39;98755.53;;;-10.85;59.52
65534;BME280;53640;55.838;37.184;2023-02-18T05:17:06;98657.28;;;-11.56;59.74
65534;BME280;53640;55.838;37.184;2023-02-18T05:19:34;98650.22;;;-11.68;60.25
65534;BME280;53640;55.838;37.184;2023-02-18T05:22:01;98692.75;;;-11.25;59.59
65534;BME280;53640;55.838;37.184;2023-02-18T05:24:32;98702.16;;;-11.22;60.10
65534;BME280;53640;55.838;37.184;2023-02-18T05:27:02;98573.06;;;-12.01;60.09
65534;BME280;53640;55.838;37.184;2023-02-18T05:29:33;98601.41;;;-11.80;59.88
65534;BME280;53640;55.838;37.184;2023-02-18T05:32:00;98715.56;;;-11.00;59.82
65534;BME280;53640;55.838;37.184;2023-02-18T05:34:27;98544.13;;;-12.11;59.97
65534;BME280;53640;55.838;37.184;2023-02-18T05:36:54;98697.44;;;-11.03;59.93
65534;BME280;53640;55.838;37.184;2023-02-18T05:39:25;98546.28;;;-12.03;60.36
65534;BME280;53640;55.838;37.184;2023-02-18T05:41:51;98596.06;;;-11.65;60.54
65534;BME280;53640;55.838;37.184;2023-02-18T05:44:22;98601.72;;;-11.58;60.11
65534;BME280;53640;55.838;37.184;2023-02-18T05:47:02;98628.34;;;-11.39;60.45
65534;BME280;53640;55.838;37.184;2023-02-18T05:49:31;98531.81;;;-11.94;60.38
65534;BME280;53640;55.838;37.184;2023-02-18T05:52:01;98630.91;;;-11.24;59.97
65534;BME280;53640;55.838;37.184;2023-02-18T05:54:28;98651.78;;;-11.24;60.11
65534;BME280;53640;55.838;37.184;2023-02-18T05:57:17;98571.81;;;-11.67;60.48
65534;BME280;53640;55.838;37.184;2023-02-18T05:59:47;98534.66;;;-11.85;60.62
65534;BME280;53640;55.838;37.184;2023-02-18T06:02:14;98622.78;;;-11.20;60.52
65534;BME280;53640;55.838;37.184;2023-02-18T06:04:45;98576.75;;;-11.35;60.40
65534;BME280;53640;55.838;37.184;2023-02-18T06:07:23;98596.81;;;-11.36;60.43
65534;BME280;53640;55.838;37.184;2023-02-18T06:10:08;98524.31;;;-11.59;60.35
65534;BME280;53640;55.838;37.184;2023-02-18T06:12:36;98516.69;;;-11.62;60.50
65534;BME280;53640;55.838;37.184;2023-02-18T06:15:03;98602.22;;;-11.12;60.45
65534;BME280;53640;55.838;37.184;2023-02-18T06:18:01;98670.19;;;-10.59;60.21
65534;BME280;53640;55.838;37.184;2023-02-18T06:20:49;98566.16;;;-11.19;60.62
65534;BME280;53640;55.838;37.184;2023-02-18T06:23:19;98615.41;;;-10.88;60.33
65534;BME280;53640;55.838;37.184;2023-02-18T06:25:51;98621.78;;;-10.92;60.35
65534;BME280;53640;55.838;37.184;2023-02-18T06:28:24;98553.09;;;-11.19;60.14
65534;BME280;53640;55.838;37.184;2023-02-18T06:30:53;98596.34;;;-10.75;60.32
65534;BME280;53640;55.838;37.184;2023-02-18T06:33:38;98645.22;;;-10.38;60.06
65534;BME280;53640;55.838;37.184;2023-02-18T06:36:17;98638.97;;;-10.22;59.51
65534;BME280;53640;55.838;37.184;2023-02-18T06:38:45;98472.81;;;-11.17;59.37
65534;BME280;53640;55.838;37.184;2023-02-18T06:41:22;98638.44;;;-10.15;59.50
65534;BME280;53640;55.838;37.184;2023-02-18T06:43:50;98582.88;;;-10.56;59.17
65534;BME280;53640;55.838;37.184;2023-02-18T06:46:17;98522.50;;;-10.66;58.97
65534;BME280;53640;55.838;37.184;2023-02-18T06:48:44;98516.00;;;-10.48;57.94
65534;BME280;53640;55.838;37.184;2023-02-18T06:51:23;98515.56;;;-10.29;58.27
65534;BME280;53640;55.838;37.184;2023-02-18T06:54:02;98496.34;;;-10.41;57.30
65534;BME280;53640;55.838;37.184;2023-02-18T06:56:35;98576.19;;;-9.73;57.79
65534;BME280;53640;55.838;37.184;2023-02-18T06:59:07;98504.88;;;-10.13;57.22
65534;BME280;53640;55.838;37.184;2023-02-18T07:01:40;98554.78;;;-9.67;57.10
65534;BME280;53640;55.838;37.184;2023-02-18T07:04:14;98449.69;;;-10.10;57.10
65534;BME280;53640;55.838;37.184;2023-02-18T07:06:45;98410.72;;;-10.26;56.60
65534;BME280;53640;55.838;37.184;2023-02-18T07:09:25;98483.16;;;-9.66;56.19
65534;BME280;53640;55.838;37.184;2023-02-18T07:11:58;98500.09;;;-9.58;56.22
65534;BME280;53640;55.838;37.184;2023-02-18T07:14:27;98508.38;;;-9.41;55.38
65534;BME280;53640;55.838;37.184;2023-02-18T07:16:55;98475.22;;;-9.53;55.77
65534;BME280;53640;55.838;37.184;2023-02-18T07:19:26;98442.88;;;-9.76;55.45
65534;BME280;53640;55.838;37.184;2023-02-18T07:22:13;98465.56;;;-9.28;55.23
65534;BME280;53640;55.838;37.184;2023-02-18T07:24:57;98476.53;;;-9.23;54.87
65534;BME280;53640;55.838;37.184;2023-02-18T07:27:30;98553.69;;;-8.57;53.96
65534;BME280;53640;55.838;37.184;2023-02-18T07:29:58;98437.06;;;-9.33;54.24
65534;BME280;53640;55.838;37.184;2023-02-18T07:32:32;98482.94;;;-8.81;54.33
65534;BME280;53640;55.838;37.184;2023-02-18T07:35:04;98413.41;;;-9.20;53.77
65534;BME280;53640;55.838;37.184;2023-02-18T07:37:36;98475.81;;;-8.68;53.53
65534;BME280;53640;55.838;37.184;2023-02-18T07:40:08;98512.06;;;-8.61;53.00
65534;BME280;53640;55.838;37.184;2023-02-18T07:42:51;98548.34;;;-8.22;53.12
65534;BME280;53640;55.838;37.184;2023-02-18T07:45:20;98396.88;;;-8.98;53.22
65534;BME280;53640;55.838;37.184;2023-02-18T07:47:49;98376.72;;;-9.20;52.99
65534;BME280;53640;55.838;37.184;2023-02-18T07:50:53;98398.78;;;-9.00;52.85
65534;BME280;53640;55.838;37.184;2023-02-18T07:53:25;98359.59;;;-9.02;52.76
65534;BME280;53640;55.838;37.184;2023-02-18T07:55:53;98372.44;;;-8.87;52.28
65534;BME280;53640;55.838;37.184;2023-02-18T07:58:24;98422.53;;;-8.57;53.04
65534;BME280;53640;55.838;37.184;2023-02-18T08:00:53;98351.44;;;-8.76;52.49
65534;BME280;53640;55.838;37.184;2023-02-18T08:03:23;98452.81;;;-8.30;52.49
65534;BME280;53640;55.838;37.184;2023-02-18T08:05:53;98348.50;;;-8.72;52.79
65534;BME280;53640;55.838;37.184;2023-02-18T08:08:26;98421.41;;;-8.21;53.15
65534;BME280;53640;55.838;37.184;2023-02-18T08:10:56;98485.94;;;-7.52;52.69
65534;BME280;53640;55.838;37.184;2023-02-18T08:13:25;98457.69;;;-7.71;51.54
65534;BME280;53640;55.838;37.184;2023-02-18T08:15:55;98421.66;;;-7.80;51.35
65534;BME280;53640;55.838;37.184;2023-02-18T08:18:22;98330.56;;;-8.01;51.03
65534;BME280;53640;55.838;37.184;2023-02-18T08:20:50;98418.03;;;-7.36;50.43
65534;BME280;53640;55.838;37.184;2023-02-18T08:23:21;98435.06;;;-6.88;50.84
65534;BME280;53640;55.838;37.184;2023-02-18T08:25:49;98365.53;;;-6.96;48.84
65534;BME280;53640;55.838;37.184;2023-02-18T08:28:33;98332.84;;;-7.03;49.47
65534;BME280;53640;55.838;37.184;2023-02-18T08:31:01;98378.41;;;-6.62;48.03
65534;BME280;53640;55.838;37.184;2023-02-18T08:33:35;98348.06;;;-6.66;48.44
65534;BME280;53640;55.838;37.184;2023-02-18T08:36:08;98362.91;;;-6.55;47.93
65534;BME280;53640;55.838;37.184;2023-02-18T08:38:35;98311.16;;;-6.85;47.54
65534;BME280;53640;55.838;37.184;2023-02-18T08:41:07;98326.63;;;-6.52;47.68
65534;BME280;53640;55.838;37.184;2023-02-18T08:43:35;98360.44;;;-6.57;46.95
65534;BME280;53640;55.838;37.184;2023-02-18T08:46:07;98276.47;;;-6.60;46.75
65534;BME280;53640;55.838;37.184;2023-02-18T08:48:36;98271.91;;;-6.48;46.59
65534;BME280;53640;55.838;37.184;2023-02-18T08:51:16;98344.06;;;-6.01;46.25
65534;BME280;53640;55.838;37.184;2023-02-18T08:53:50;98306.59;;;-6.24;46.43
65534;BME280;53640;55.838;37.184;2023-02-18T08:56:17;98245.31;;;-6.55;46.16
65534;BME280;53640;55.838;37.184;2023-02-18T08:58:46;98297.59;;;-6.21;46.40
65534;BME280;53640;55.838;37.184;2023-02-18T09:01:15;98291.63;;;-6.13;47.28
65534;BME280;53640;55.838;37.184;2023-02-18T09:03:42;98364.97;;;-5.60;47.44
65534;BME280;53640;55.838;37.184;2023-02-18T09:06:09;98353.88;;;-5.54;47.43
65534;BME280;53640;55.838;37.184;2023-02-18T09:08:40;98377.34;;;-5.41;46.99
65534;BME280;53640;55.838;37.184;2023-02-18T09:11:09;98302.97;;;-5.64;47.04
65534;BME280;53640;55.838;37.184;2023-02-18T09:13:38;98280.34;;;-5.57;45.90
65534;BME280;53640;55.838;37.184;2023-02-18T09:16:11;98386.50;;;-4.79;45.15
65534;BME280;53640;55.838;37.184;2023-02-18T09:18:38;98317.41;;;-5.02;44.23
65534;BME280;53640;55.838;37.184;2023-02-18T09:21:07;98362.44;;;-4.39;45.39
65534;BME280;53640;55.838;37.184;2023-02-18T09:23:35;98350.56;;;-3.89;45.53
65534;BME280;53640;55.838;37.184;2023-02-18T09:26:06;98329.78;;;-3.48;46.07
65534;BME280;53640;55.838;37.184;2023-02-18T09:28:33;98320.91;;;-3.13;45.91
65534;BME280;53640;55.838;37.184;2023-02-18T09:31:21;98294.56;;;-2.97;43.52
65534;BME280;53640;55.838;37.184;2023-02-18T09:33:53;98348.44;;;-2.38;41.36
65534;BME280;53640;55.838;37.184;2023-02-18T09:36:20;98302.06;;;-2.42;41.09
65534;BME280;53640;55.838;37.184;2023-02-18T09:38:47;98315.22;;;-2.66;41.95
65534;BME280;53640;55.838;37.184;2023-02-18T09:41:41;98280.28;;;-2.70;40.88
65534;BME280;53640;55.838;37.184;2023-02-18T09:46:42;98289.22;;;-2.12;42.41
65534;BME280;53640;55.838;37.184;2023-02-18T09:49:20;98277.81;;;-1.80;40.28
65534;BME280;53640;55.838;37.184;2023-02-18T09:51:53;98288.41;;;-1.39;41.87
65534;BME280;53640;55.838;37.184;2023-02-18T09:54:31;98281.22;;;-1.06;40.72
65534;BME280;53640;55.838;37.184;2023-02-18T09:57:02;98182.13;;;-1.54;39.29
65534;BME280;53640;55.838;37.184;2023-02-18T09:59:29;98190.56;;;-1.42;38.00
65534;BME280;53640;55.838;37.184;2023-02-18T10:01:57;98199.75;;;-1.14;39.83
65534;BME280;53640;55.838;37.184;2023-02-18T10:07:31;98234.78;;;-0.79;39.30
65534;BME280;53640;55.838;37.184;2023-02-18T10:10:15;98102.84;;;-1.18;38.79
65534;BME280;53640;55.838;37.184;2023-02-18T10:12:41;98269.16;;;-0.15;39.75
65534;BME280;53640;55.838;37.184;2023-02-18T10:15:20;98183.91;;;-0.59;38.75
65534;BME280;53640;55.838;37.184;2023-02-18T10:17:48;98204.34;;;-0.60;38.92
65534;BME280;53640;55.838;37.184;2023-02-18T10:20:23;98184.78;;;-0.67;37.89
65534;BME280;53640;55.838;37.184;2023-02-18T10:22:53;98134.47;;;-1.39;39.11
65534;BME280;53640;55.838;37.184;2023-02-18T10:25:23;98188.69;;;-1.33;38.03
65534;BME280;53640;55.838;37.184;2023-02-18T10:27:52;98177.13;;;-1.49;38.77
65534;BME280;53640;55.838;37.184;2023-02-18T10:30:26;98177.59;;;-1.37;42.66
65534;BME280;53640;55.838;37.184;2023-02-18T10:36:02;98176.59;;;-1.36;40.98
65534;BME280;53640;55.838;37.184;2023-02-18T10:38:42;98232.81;;;-1.32;41.08
65534;BME280;53640;55.838;37.184;2023-02-18T10:41:31;98222.41;;;-1.50;41.08
65534;BME280;53640;55.838;37.184;2023-02-18T10:44:23;98173.69;;;-1.74;43.30
65534;BME280;53640;55.838;37.184;2023-02-18T10:47:05;98209.19;;;-1.11;41.63
65534;BME280;53640;55.838;37.184;2023-02-18T10:49:56;98218.84;;;-0.79;40.85
65534;BME280;53640;55.838;37.184;2023-02-18T10:52:24;98139.06;;;-1.25;37.56
65534;BME280;53640;55.838;37.184;2023-02-18T10:57:24;98218.47;;;-1.07;42.73
65534;BME280;53640;55.838;37.184;2023-02-18T10:59:59;98176.31;;;-1.10;40.09
65534;BME280;53640;55.838;37.184;2023-02-18T11:03:02;98080.22;;;-1.37;39.36
65534;BME280;53640;55.838;37.184;2023-02-18T11:05:34;98136.41;;;-1.25;45.19
65534;BME280;53640;55.838;37.184;2023-02-18T11:08:07;98182.38;;;-0.85;42.72
65534;BME280;53640;55.838;37.184;2023-02-18T11:10:38;98159.69;;;-0.96;41.82
65534;BME280;53640;55.838;37.184;2023-02-18T11:13:07;98128.47;;;-1.33;41.34
65534;BME280;53640;55.838;37.184;2023-02-18T11:15:34;98162.97;;;-1.33;40.51
65534;BME280;53640;55.838;37.184;2023-02-18T11:18:27;98179.56;;;-1.39;41.76
65534;BME280;53640;55.838;37.184;2023-02-18T11:21:05;98098.31;;;-1.88;42.81
65534;BME280;53640;55.838;37.184;2023-02-18T11:23:45;98074.63;;;-1.97;42.17
65534;BME280;53640;55.838;37.184;2023-02-18T11:26:14;98018.53;;;-1.78;42.71
65534;BME280;53640;55.838;37.184;2023-02-18T11:28:49;98147.66;;;-0.83;41.99
65534;BME280;53640;55.838;37.184;2023-02-18T11:31:22;98030.25;;;-1.33;40.40
65534;BME280;53640;55.838;37.184;2023-02-18T11:33:53;98039.63;;;-0.91;39.48
65534;BME280;53640;55.838;37.184;2023-02-18T11:36:30;98102.56;;;-0.08;40.09
65534;BME280;53640;55.838;37.184;2023-02-18T11:39:00;98112.44;;;0.21;39.92
65534;BME280;53640;55.838;37.184;2023-02-18T11:41:41;98117.03;;;0.72;39.91
65534;BME280;53640;55.838;37.184;2023-02-18T11:44:33;98111.13;;;1.06;36.77
65534;BME280;53640;55.838;37.184;2023-02-18T11:47:16;98107.69;;;1.12;36.23
65534;BME280;53640;55.838;37.184;2023-02-18T11:49:59;98082.81;;;1.05;36.19
65534;BME280;53640;55.838;37.184;2023-02-18T11:52:32;98095.06;;;0.84;37.06
65534;BME280;53640;55.838;37.184;2023-02-18T11:57:31;98089.22;;;0.45;36.23
65534;BME280;53640;55.838;37.184;2023-02-18T11:59:59;98047.53;;;0.07;37.24
65534;BME280;53640;55.838;37.184;2023-02-18T12:02:31;98081.03;;;0.02;38.63
65534;BME280;53640;55.838;37.184;2023-02-18T12:05:02;98099.09;;;0.06;35.55
65534;BME280;53640;55.838;37.184;2023-02-18T12:07:38;98058.44;;;-0.17;36.96
65534;BME280;53640;55.838;37.184;2023-02-18T12:10:13;98043.91;;;-0.44;38.88
65534;BME280;53640;55.838;37.184;2023-02-18T12:12:47;98071.44;;;-0.37;37.60
65534;BME280;53640;55.838;37.184;2023-02-18T12:15:21;98064.53;;;-0.69;39.02
65534;BME280;53640;55.838;37.184;2023-02-18T12:21:59;98089.34;;;-0.77;37.73
65534;BME280;53640;55.838;37.184;2023-02-18T12:27:04;98064.25;;;-0.97;39.36
65534;BME280;53640;55.838;37.184;2023-02-18T12:32:39;98072.13;;;-1.12;39.58
65534;BME280;53640;55.838;37.184;2023-02-18T12:44:03;98037.44;;;-1.81;41.34
65534;BME280;53640;55.838;37.184;2023-02-18T12:54:54;98045.22;;;-2.60;40.88
65534;BME280;53640;55.838;37.184;2023-02-18T13:06:19;98031.09;;;-3.42;42.87
65534;BME280;53640;55.838;37.184;2023-02-18T13:09:14;98003.28;;;-3.96;43.65
65534;BME280;53640;55.838;37.184;2023-02-18T13:15:17;97985.38;;;-4.45;44.58
65534;BME280;53640;55.838;37.184;2023-02-18T13:17:46;98021.56;;;-4.37;44.32
65534;BME280;53640;55.838;37.184;2023-02-18T13:20:36;98027.09;;;-4.48;45.27
65534;BME280;53640;55.838;37.184;2023-02-18T13:23:09;98016.19;;;-4.54;45.30
65534;BME280;53640;55.838;37.184;2023-02-18T13:25:39;97956.47;;;-4.98;45.05
65534;BME280;53640;55.838;37.184;2023-02-18T13:28:54;98010.84;;;-4.62;44.77
65534;BME280;53640;55.838;37.184;2023-02-18T13:33:38;98006.47;;;-4.71;45.23
65534;BME280;53640;55.838;37.184;2023-02-18T13:39:07;98007.94;;;-4.94;45.94
65534;BME280;53640;55.838;37.184;2023-02-18T13:41:39;98006.06;;;-5.02;46.18
65534;BME280;53640;55.838;37.184;2023-02-18T13:46:57;97921.41;;;-5.53;46.20
65534;BME280;53640;55.838;37.184;2023-02-18T13:49:26;97984.00;;;-5.19;46.33
65534;BME280;53640;55.838;37.184;2023-02-18T13:52:00;97983.72;;;-5.34;46.34
65534;BME280;53640;55.838;37.184;2023-02-18T13:54:47;97989.50;;;-5.30;46.71
65534;BME280;53640;55.838;37.184;2023-02-18T13:57:25;97952.66;;;-5.58;46.87
65534;BME280;53640;55.838;37.184;2023-02-18T14:00:04;97944.97;;;-5.69;46.91
65534;BME280;53640;55.838;37.184;2023-02-18T14:02:34;97939.84;;;-5.70;47.20
65534;BME280;53640;55.838;37.184;2023-02-18T14:25:53;97924.09;;;-6.26;48.85
65534;BME280;53640;55.838;37.184;2023-02-18T14:28:36;97968.31;;;-6.02;49.28
65534;BME280;53640;55.838;37.184;2023-02-18T14:33:43;97867.78;;;-6.70;48.77
65534;BME280;53640;55.838;37.184;2023-02-18T14:36:24;97952.03;;;-6.15;49.49
65534;BME280;53640;55.838;37.184;2023-02-18T14:40:15;97948.06;;;-6.19;49.61
65534;BME280;53640;55.838;37.184;2023-02-18T14:45:34;97946.28;;;-6.28;49.90
65534;BME280;53640;55.838;37.184;2023-02-18T14:50:43;97908.44;;;-6.55;49.88
65534;BME280;53640;55.838;37.184;2023-02-18T14:53:14;97940.25;;;-6.38;50.17
65534;BME280;53640;55.838;37.184;2023-02-18T14:55:48;97935.81;;;-6.38;50.47
65534;BME280;53640;55.838;37.184;2023-02-18T14:58:30;97934.00;;;-6.37;50.39
65534;BME280;53640;55.838;37.184;2023-02-18T15:01:17;97855.53;;;-6.89;50.50
65534;BME280;53640;55.838;37.184;2023-02-18T15:03:45;97918.28;;;-6.57;50.29
65534;BME280;53640;55.838;37.184;2023-02-18T15:08:55;97889.34;;;-6.57;50.95
65534;BME280;53640;55.838;37.184;2023-02-18T15:11:25;97894.16;;;-6.52;51.75
65534;BME280;53640;55.838;37.184;2023-02-18T15:13:54;97918.22;;;-6.47;52.00
65534;BME280;53640;55.838;37.184;2023-02-18T15:16:30;97918.22;;;-6.37;51.27
65534;BME280;53640;55.838;37.184;2023-02-18T15:19:00;97912.41;;;-6.41;50.87
65534;BME280;53640;55.838;37.184;2023-02-18T15:21:39;97914.03;;;-6.40;51.46
65534;BME280;53640;55.838;37.184;2023-02-18T15:24:12;97875.19;;;-6.56;51.29
65534;BME280;53640;55.838;37.184;2023-02-18T15:26:45;97860.97;;;-6.63;51.32
65534;BME280;53640;55.838;37.184;2023-02-18T15:29:17;97845.38;;;-6.74;51.38
65534;BME280;53640;55.838;37.184;2023-02-18T15:31:46;97894.00;;;-6.51;51.53